EST,Max TemperatureF,Mean TemperatureF,Min TemperatureF,Max Dew PointF,MeanDew PointF,Min DewpointF,Max Humidity, Mean Humidity, Min Humidity, Max Sea Level PressureIn, Mean Sea Level PressureIn, Min Sea Level PressureIn, Max VisibilityMiles, Mean VisibilityMiles, Min VisibilityMiles, Max Wind SpeedMPH, Mean Wind SpeedMPH, Max Gust SpeedMPH,PrecipitationIn, CloudCover, Events, WindDirDegrees
2012-12-1,72,57,41,48,44,38,89,65,41,30.40,30.35,30.32,10,9,6,8,1,10,0.00,1,,98
2012-12-2,73,59,44,57,51,42,93,73,53,30.40,30.33,30.27,10,9,6,13,3,16,0.00,5,,163
2012-12-3,79,64,48,58,51,46,96,68,40,30.33,30.29,30.24,10,4,0,12,3,16,0.00,2,Fog,232
2012-12-4,78,64,49,57,52,46,96,70,43,30.35,30.28,30.22,10,4,0,12,4,15,0.00,4,Fog,222
2012-12-5,77,67,56,59,54,49,93,66,38,30.21,30.16,30.09,10,10,10,16,8,21,0.00,5,,304
2012-12-6,61,55,48,54,43,37,86,69,51,30.26,30.20,30.16,10,9,4,17,10,21,0.20,8,Rain,55
2012-12-7,62,56,49,53,46,36,93,75,56,30.16,30.07,30.01,10,9,4,13,5,15,0.08,8,Rain,2
2012-12-8,72,63,53,54,52,50,93,73,53,30.09,30.04,30.01,10,5,0,8,5,13,0.00,5,Fog,271
2012-12-9,77,64,51,63,57,48,93,79,64,30.15,30.09,29.99,10,6,0,10,2,13,0.00,6,Fog,170
2012-12-10,76,69,61,63,60,56,93,73,53,29.99,29.87,29.76,10,5,0,18,6,24,0.00,3,Fog,209
2012-12-11,68,63,58,61,54,40,93,70,47,30.07,29.93,29.76,10,10,8,14,7,20,0.00,7,,224
2012-12-12,58,51,43,46,42,38,89,70,51,30.25,30.19,30.09,10,8,5,18,12,26,0.60,8,Rain,38
2012-12-13,59,50,41,41,39,36,96,74,51,30.35,30.28,30.21,10,8,2,18,10,26,0.32,6,Rain,19
2012-12-14,64,50,36,36,32,25,76,50,23,30.38,30.30,30.23,10,10,10,8,4,10,0.00,0,,23
2012-12-15,61,48,35,49,41,31,77,64,51,30.26,30.18,30.09,10,9,2,9,3,12,0.00,6,,38
2012-12-16,65,60,55,58,55,50,86,82,77,30.10,30.01,29.88,9,2,0,9,2,12,0.10,8,Fog-Rain,129
2012-12-17,65,63,60,61,57,55,84,81,78,29.89,29.83,29.70,10,7,2,21,6,25,0.57,7,Rain,217
2012-12-18,70,65,59,56,48,34,80,58,36,29.95,29.79,29.71,10,10,10,22,12,32,0.00,3,,252
2012-12-19,72,57,41,44,37,32,74,51,27,30.11,30.04,29.96,10,10,9,12,4,16,0.00,0,,256
2012-12-20,70,56,41,63,49,36,93,68,42,30.11,29.84,29.58,10,9,2,26,9,37,0.42,4,Rain,190
2012-12-21,56,49,41,39,26,21,66,51,36,29.91,29.78,29.66,10,10,10,35,17,44,0.00,1,,271
2012-12-22,54,44,34,24,19,15,64,43,22,30.15,30.07,29.91,10,10,10,17,9,25,0.00,0,,271
2012-12-23,58,41,24,32,25,20,85,55,24,30.20,30.12,30.06,10,10,10,14,4,18,0.00,1,,221
2012-12-24,58,51,43,47,38,32,92,66,40,30.07,30.00,29.93,10,10,9,13,6,17,0.07,5,Rain,215
2012-12-25,62,57,51,51,49,46,93,77,60,30.09,30.02,29.94,10,10,5,13,4,15,0.14,6,Rain,89
2012-12-26,69,56,42,63,50,31,96,69,42,29.96,29.68,29.46,10,7,2,30,14,39,0.73,7,Rain,151
2012-12-27,55,45,35,35,32,29,89,65,41,30.07,29.94,29.76,10,10,10,17,7,21,0.00,0,,276
2012-12-28,51,41,31,37,32,27,82,68,53,30.18,30.09,29.96,10,10,10,8,4,12,0.00,3,,70
2012-12-29,56,49,41,45,40,28,96,76,55,30.01,29.80,29.71,10,6,2,21,10,26,0.86,7,Rain,330
2012-12-30,50,39,27,29,23,19,85,58,31,30.43,30.30,30.04,10,10,9,16,6,22,0.00,0,,322
2012-12-31,58,41,23,42,30,21,92,62,32,30.43,30.32,30.16,10,10,9,16,5,20,0.00,2,,222